Data for 04/28/2016

Time Sea-Level Adjusted Pressure Absolute Pressure Temperature Relative Humidity Dew Point   
(mb) (inHg) (mb) (inHg) (C) (F) (%) (C) (F)
00:05 1016 30 845 24.95 0.3 32.5 79 -2.9 26.7
00:10 1016 30 845 24.95 0.3 32.6 78 -3 26.6
00:15 1016 30 845 24.95 0.4 32.6 78 -3.1 26.4
00:20 1016 30 845 24.95 0.4 32.7 77 -3.1 26.4
00:25 1016 30 845 24.95 0.4 32.7 77 -3.1 26.5
00:30 1016 30 845 24.95 0.4 32.8 78 -3 26.6
00:35 1016 30 845 24.95 0.4 32.7 78 -3 26.5
00:40 1016 30 845 24.95 0.4 32.7 77 -3.1 26.4
00:45 1016 30 845 24.95 0.4 32.8 78 -3 26.6
00:50 1016 30 845 24.95 0.4 32.7 78 -3.1 26.5
00:55 1016 30 845 24.95 0.4 32.7 77 -3.1 26.4
01:00 1016 30 846 24.98 0.3 32.6 78 -3.1 26.4
01:05 1016 30 846 24.98 0.3 32.6 78 -3.1 26.4
01:10 1016 30 846 24.98 0.3 32.6 76 -3.3 26
01:15 1016 30 846 24.98 0.4 32.7 77 -3.3 26.1
01:20 1016 30 846 24.98 0.3 32.6 77 -3.2 26.2
01:25 1016 30 846 24.98 0.3 32.6 76 -3.4 25.9
01:30 1016 30 846 24.98 0.3 32.5 77 -3.2 26.2
01:35 1016 30 846 24.98 0.2 32.4 78 -3.2 26.2
01:40 1016 30 846 24.98 0.2 32.4 78 -3.2 26.3
01:45 1016 30 846 24.98 0.2 32.4 77 -3.3 26
01:50 1016 30 846 24.98 0.2 32.3 78 -3.3 26.1
01:55 1016 30 845 24.95 0.1 32.2 78 -3.2 26.2
02:00 1016 30 846 24.98 0 32.1 79 -3.1 26.4
02:05 1016 30 845 24.95 0 32 79 -3.1 26.4
02:10 1016 30 845 24.95 -0 32 79 -3.2 26.3
02:15 1016 30 845 24.95 -0.1 31.9 80 -3.1 26.5
02:20 1016 30 845 24.95 -0.1 31.8 81 -3 26.6
02:25 1016 30 845 24.95 -0.1 31.8 80 -3.1 26.4
02:30 1016 30 845 24.95 -0.1 31.7 81 -3 26.6
02:35 1016 30 845 24.95 -0.2 31.7 81 -3 26.6
02:40 1016 30 845 24.95 -0.2 31.6 81 -3 26.5
02:45 1016 30 845 24.95 -0.2 31.7 81 -3.1 26.4
02:50 1016 30 845 24.95 -0.1 31.8 80 -3.1 26.4
02:55 1016 30 845 24.95 -0.1 31.8 80 -3.1 26.4
03:00 1016 30 845 24.95 -0.1 31.8 81 -3 26.5
03:05 1016 30 845 24.95 -0.1 31.8 81 -3.1 26.5
03:10 1016 30 845 24.95 -0.1 31.9 80 -3.1 26.4
03:15 1016 30 845 24.95 -0 32 79 -3.2 26.3
03:20 1016 30 845 24.95 -0 32 79 -3.2 26.2
03:25 1016 30 845 24.95 -0 31.9 79 -3.2 26.2
03:30 1016 30 845 24.95 -0 31.9 80 -3.1 26.3
03:35 1016 30 846 24.98 -0.1 31.9 80 -3.1 26.5
03:40 1016 30 846 24.98 -0.1 31.8 80 -3.1 26.4
03:45 1016 30 846 24.98 -0.1 31.8 80 -3.1 26.4
03:50 1016 30 846 24.98 -0.1 31.8 81 -3.1 26.5
03:55 1016 30 846 24.98 -0.1 31.8 81 -3 26.5
04:00 1016 30 846 24.98 -0.2 31.7 81 -3.1 26.5
04:05 1016 30 846 24.98 -0.2 31.7 80 -3.2 26.2
04:10 1016 30 846 24.98 -0.2 31.7 80 -3.3 26.1
04:15 1016 30 846 24.98 -0.2 31.7 80 -3.3 26.1
04:20 1016 30 846 24.98 -0.2 31.6 80 -3.3 26.1
04:25 1016 30 846 24.98 -0.3 31.5 81 -3.2 26.2
04:30 1017 30.03 846 24.98 -0.3 31.5 81 -3.2 26.2
04:35 1016 30 846 24.98 -0.3 31.4 81 -3.2 26.3
04:40 1016 30 846 24.98 -0.4 31.3 81 -3.3 26.1
04:45 1017 30.03 846 24.98 -0.4 31.3 81 -3.3 26.1
04:50 1017 30.03 846 24.98 -0.4 31.3 81 -3.3 26.1
04:55 1017 30.03 846 24.98 -0.5 31.2 82 -3.2 26.3
05:00 1017 30.03 846 24.98 -0.5 31.1 82 -3.2 26.3
05:05 1017 30.03 846 24.98 -0.5 31 82 -3.3 26
05:10 1017 30.03 846 24.98 -0.6 31 82 -3.3 26
05:15 1017 30.03 846 24.98 -0.6 30.9 82 -3.3 26
05:20 1017 30.03 846 24.98 -0.6 30.9 82 -3.4 25.9
05:25 1017 30.03 846 24.98 -0.7 30.8 81 -3.6 25.6
05:30 1017 30.03 846 24.98 -0.7 30.8 80 -3.7 25.4
05:35 1017 30.03 846 24.98 -0.8 30.6 80 -3.8 25.1
05:40 1017 30.03 846 24.98 -0.8 30.6 80 -3.9 25
05:45 1017 30.03 846 24.98 -0.8 30.5 80 -3.9 24.9
05:50 1017 30.03 846 24.98 -0.9 30.4 79 -4 24.7
05:55 1017 30.03 846 24.98 -0.9 30.4 80 -4 24.8
06:00 1017 30.03 846 24.98 -0.9 30.3 79 -4.1 24.7
06:05 1017 30.03 846 24.98 -1 30.2 79 -4.2 24.4
06:10 1017 30.03 846 24.98 -1 30.2 78 -4.3 24.2
06:15 1017 30.03 846 24.98 -1 30.1 78 -4.5 24
06:20 1017 30.03 846 24.98 -1 30.2 77 -4.5 23.9
06:25 1017 30.03 846 24.98 -1 30.2 77 -4.6 23.8
06:30 1017 30.03 846 24.98 -1 30.3 77 -4.5 23.8
06:35 1017 30.03 846 24.98 -0.9 30.3 77 -4.5 24
06:40 1017 30.03 846 24.98 -0.9 30.4 77 -4.5 24
06:45 1017 30.03 846 24.98 -0.9 30.5 76 -4.5 23.8
06:50 1017 30.03 846 24.98 -0.8 30.6 76 -4.5 24
06:55 1017 30.03 846 24.98 -0.8 30.5 77 -4.4 24.1
07:00 1017 30.03 846 24.98 -0.8 30.5 77 -4.4 24.1
07:05 1017 30.03 846 24.98 -0.9 30.4 77 -4.5 24
07:10 1017 30.03 846 24.98 -0.9 30.4 76 -4.6 23.7
07:15 1017 30.03 846 24.98 -0.9 30.4 76 -4.6 23.7
07:20 1017 30.03 846 24.98 -0.8 30.6 75 -4.6 23.7
07:25 1017 30.03 846 24.98 -0.8 30.6 75 -4.7 23.5
07:30 1017 30.03 846 24.98 -0.7 30.7 75 -4.7 23.6
07:35 1017 30.03 846 24.98 -0.7 30.7 75 -4.5 23.9
07:40 1017 30.03 847 25.01 -0.6 31 74 -4.6 23.7
07:45 1017 30.03 847 25.01 -0.6 31 74 -4.6 23.7
07:50 1017 30.03 847 25.01 -0.5 31 74 -4.6 23.7
07:55 1017 30.03 846 24.98 -0.4 31.2 74 -4.5 24
08:00 1017 30.03 846 24.98 -0.4 31.4 73 -4.6 23.7
08:05 1017 30.03 846 24.98 -0.2 31.6 74 -4.4 24.1
08:10 1017 30.03 847 25.01 -0.1 31.8 72 -4.6 23.7
08:15 1017 30.03 847 25.01 -0.2 31.7 72 -4.6 23.7
08:20 1017 30.03 847 25.01 0.1 32.2 71 -4.6 23.8
08:25 1017 30.03 847 25.01 0.1 32.1 71 -4.6 23.6
08:30 1017 30.03 847 25.01 0.2 32.3 71 -4.5 23.8
08:35 1017 30.03 847 25.01 0.2 32.3 70 -4.6 23.8
08:40 1017 30.03 847 25.01 0.4 32.7 71 -4.4 24.1
08:45 1017 30.03 847 25.01 0.4 32.8 71 -4.2 24.4
08:50 1017 30.03 847 25.01 0.6 33.1 69 -4.5 23.9
08:55 1017 30.03 847 25.01 0.7 33.3 70 -4.1 24.6
09:00 1017 30.03 847 25.01 0.8 33.4 67 -4.6 23.7
09:05 1017 30.03 847 25.01 0.9 33.6 67 -4.5 23.9
09:10 1017 30.03 847 25.01 1 33.7 68 -4.3 24.2
09:15 1017 30.03 847 25.01 1.3 34.3 68 -4.1 24.6
09:20 1017 30.03 847 25.01 1 33.8 67 -4.4 24
09:25 1017 30.03 847 25.01 0.8 33.4 66 -4.9 23.2
09:30 1017 30.03 847 25.01 0.9 33.7 66 -4.8 23.4
09:35 1017 30.03 847 25.01 0.9 33.6 66 -4.7 23.5
09:40 1017 30.03 847 25.01 0.8 33.4 66 -4.9 23.2
09:45 1017 30.03 847 25.01 0.8 33.5 66 -4.8 23.3
09:50 1017 30.03 847 25.01 0.9 33.6 67 -4.5 23.9
09:55 1017 30.03 847 25.01 1 33.8 67 -4.5 23.8
10:00 1017 30.03 847 25.01 1 33.8 67 -4.4 24.2
10:05 1017 30.03 847 25.01 1.1 34.1 66 -4.5 23.9
10:10 1017 30.03 847 25.01 1.1 34 67 -4.3 24.2
10:15 1017 30.03 847 25.01 1.5 34.6 65 -4.4 24.2
10:20 1017 30.03 847 25.01 1.4 34.6 65 -4.5 23.9
10:25 1017 30.03 847 25.01 1.5 34.7 65 -4.4 24
10:30 1017 30.03 847 25.01 1.4 34.6 65 -4.4 24.1
10:35 1017 30.03 847 25.01 1.3 34.4 65 -4.4 24
10:40 1017 30.03 847 25.01 1.5 34.7 66 -4.2 24.4
10:45 1017 30.03 847 25.01 1.7 35 65 -4.3 24.3
10:50 1017 30.03 847 25.01 1.7 35 67 -3.9 25
10:55 1017 30.03 847 25.01 1.9 35.5 64 -4.1 24.7
11:00 1017 30.03 846 24.98 2.1 35.7 64 -4 24.8
11:05 1017 30.03 846 24.98 2 35.6 65 -3.9 25
11:10 1017 30.03 846 24.98 1.9 35.5 66 -3.8 25.1
11:15 1017 30.03 846 24.98 2.1 35.8 66 -3.6 25.5
11:20 1017 30.03 846 24.98 2.4 36.3 63 -3.9 25.1
11:25 1017 30.03 846 24.98 2.3 36.1 63 -4.1 24.6
11:30 1017 30.03 846 24.98 2.3 36.1 62 -4.2 24.4
11:35 1017 30.03 846 24.98 2.4 36.3 61 -4.4 24.1
11:40 1017 30.03 846 24.98 2.5 36.4 62 -4.1 24.6
11:45 1017 30.03 846 24.98 2.4 36.4 60 -4.5 23.9
11:50 1017 30.03 846 24.98 2.6 36.7 59 -4.6 23.7
11:55 1017 30.03 846 24.98 2.8 37.1 62 -3.7 25.3
12:00 1017 30.03 846 24.98 2.9 37.2 60 -4 24.7
12:05 1017 30.03 846 24.98 3.1 37.6 54 -5.2 22.6
12:10 1017 30.03 846 24.98 3.3 37.9 54 -5.1 22.8
12:15 1017 30.03 846 24.98 3.6 38.5 55 -4.5 23.9
12:20 1017 30.03 846 24.98 3.5 38.2 54 -4.9 23.3
12:25 1017 30.03 846 24.98 3.5 38.3 59 -3.9 25
12:30 1017 30.03 846 24.98 3.4 38.1 58 -4.1 24.6
12:35 1017 30.03 846 24.98 3.4 38.1 56 -4.6 23.8
12:40 1017 30.03 846 24.98 3.8 38.8 52 -5.2 22.6
12:45 1017 30.03 846 24.98 4 39.2 54 -4.5 24
12:50 1017 30.03 846 24.98 4.2 39.6 51 -5 22.9
12:55 1017 30.03 846 24.98 4.3 39.8 48 -5.7 21.7
13:00 1017 30.03 846 24.98 4.2 39.5 52 -4.8 23.4
13:05 1017 30.03 846 24.98 4.2 39.6 51 -4.9 23.1
13:10 1017 30.03 846 24.98 4 39.3 51 -5.3 22.5
13:15 1017 30.03 846 24.98 3.8 38.9 48 -6.1 21.1
13:20 1017 30.03 846 24.98 4.1 39.4 50 -5.4 22.3
13:25 1017 30.03 846 24.98 4.4 39.8 48 -5.6 21.9
13:30 1017 30.03 846 24.98 4.5 40.1 50 -5.1 22.8
13:35 1017 30.03 846 24.98 4.4 39.9 48 -5.7 21.8
13:40 1017 30.03 846 24.98 4.4 39.9 48 -5.7 21.8
13:45 1017 30.03 846 24.98 4.8 40.6 47 -5.6 21.9
13:50 1017 30.03 846 24.98 4.6 40.3 48 -5.4 22.2
13:55 1017 30.03 846 24.98 4.4 39.9 48 -5.6 21.9
14:00 1017 30.03 846 24.98 4.5 40.1 47 -5.8 21.6
14:05 1017 30.03 846 24.98 4.9 40.8 50 -4.7 23.5
14:10 1017 30.03 846 24.98 4.1 39.5 51 -5.1 22.8
14:15 1017 30.03 846 24.98 4.2 39.5 51 -5.1 22.7
14:20 1017 30.03 846 24.98 4.3 39.7 51 -5.1 22.9
14:25 1017 30.03 846 24.98 4.3 39.7 51 -5.1 22.8
14:30 1017 30.03 846 24.98 4.2 39.5 52 -4.8 23.3
14:35 1017 30.03 846 24.98 4.5 40.1 48 -5.5 22.1
14:40 1017 30.03 846 24.98 4.7 40.4 48 -5.4 22.3
14:45 1017 30.03 846 24.98 5.2 41.4 48 -5 23
14:50 1017 30.03 846 24.98 5.4 41.7 48 -4.6 23.6
14:55 1017 30.03 846 24.98 5.1 41.3 50 -4.4 24.1
15:00 1017 30.03 846 24.98 4.8 40.7 50 -4.8 23.3
15:05 1017 30.03 846 24.98 4.6 40.3 52 -4.4 24
15:10 1017 30.03 846 24.98 4.6 40.4 50 -4.8 23.4
15:15 1017 30.03 846 24.98 4.5 40 53 -4.4 24.1
15:20 1017 30.03 846 24.98 4.5 40.2 50 -4.9 23.2
15:25 1017 30.03 846 24.98 4.4 39.9 51 -4.7 23.5
15:30 1017 30.03 846 24.98 4.2 39.6 50 -5.3 22.5
15:35 1017 30.03 846 24.98 4.2 39.5 52 -4.9 23.2
15:40 1017 30.03 846 24.98 4.2 39.5 54 -4.2 24.4
15:45 1017 30.03 846 24.98 4 39.2 56 -4 24.8
15:50 1017 30.03 846 24.98 4 39.2 54 -4.5 23.8
15:55 1017 30.03 846 24.98 4.1 39.3 53 -4.7 23.6
16:00 1017 30.03 846 24.98 4.3 39.8 51 -4.8 23.4
16:05 1017 30.03 846 24.98 4.1 39.3 52 -4.8 23.4
16:10 1017 30.03 846 24.98 4.2 39.6 54 -4.2 24.4
16:15 1017 30.03 846 24.98 4.4 39.9 52 -4.6 23.7
16:20 1017 30.03 846 24.98 4.4 39.9 53 -4.3 24.2
16:25 1017 30.03 846 24.98 4.1 39.3 55 -4.2 24.5
16:30 1017 30.03 846 24.98 4.2 39.6 56 -3.9 25
16:35 1017 30.03 846 24.98 3.8 38.9 57 -3.9 25.1
16:40 1017 30.03 846 24.98 3.9 39 57 -3.9 25
16:45 1017 30.03 846 24.98 3.7 38.7 57 -4.1 24.6
16:50 1017 30.03 846 24.98 3.7 38.6 56 -4.3 24.2
16:55 1017 30.03 846 24.98 3.5 38.3 58 -4 24.7
17:00 1017 30.03 846 24.98 3.6 38.6 57 -4.2 24.5
17:05 1017 30.03 846 24.98 3.3 38 58 -4.2 24.4
17:10 1017 30.03 846 24.98 3.3 37.9 58 -4.3 24.3
17:15 1017 30.03 846 24.98 3.3 37.9 58 -4.3 24.3
17:20 1017 30.03 846 24.98 3.2 37.8 57 -4.5 24
17:25 1017 30.03 846 24.98 3.2 37.8 58 -4.2 24.4
17:30 1017 30.03 847 25.01 3 37.4 60 -4 24.8
17:35 1017 30.03 847 25.01 3.1 37.5 61 -3.8 25.2
17:40 1017 30.03 847 25.01 2.8 37.1 60 -4.2 24.4
17:45 1017 30.03 847 25.01 2.9 37.1 60 -4.2 24.4
17:50 1017 30.03 847 25.01 2.7 36.8 62 -3.9 25
17:55 1017 30.03 847 25.01 2.7 36.8 61 -4.1 24.6
18:00 1017 30.03 847 25.01 2.5 36.5 62 -4.1 24.7
18:05 1017 30.03 846 24.98 2.4 36.3 61 -4.2 24.4
18:10 1017 30.03 846 24.98 2.4 36.3 63 -4 24.8
18:15 1017 30.03 846 24.98 2.4 36.3 63 -3.9 25
18:20 1017 30.03 846 24.98 2.3 36.2 64 -3.8 25.1
18:25 1017 30.03 846 24.98 2.3 36.1 63 -4 24.7
18:30 1017 30.03 846 24.98 2.3 36.1 65 -3.6 25.5
18:35 1017 30.03 847 25.01 2.3 36.1 65 -3.6 25.5
18:40 1017 30.03 847 25.01 2.1 35.7 64 -4 24.8
18:45 1017 30.03 846 24.98 2 35.6 63 -4.3 24.3
18:50 1017 30.03 846 24.98 2 35.5 63 -4.3 24.3
18:55 1017 30.03 846 24.98 1.9 35.3 65 -4 24.9
19:00 1017 30.03 846 24.98 1.8 35.2 66 -3.8 25.1
19:05 1017 30.03 846 24.98 1.8 35.2 67 -3.7 25.4
19:10 1017 30.03 846 24.98 1.8 35.2 66 -3.9 25
19:15 1017 30.03 846 24.98 1.7 35.1 65 -4.1 24.7
19:20 1017 30.03 847 25.01 1.7 35.1 65 -4.3 24.3
19:25 1017 30.03 847 25.01 1.7 35 66 -4.1 24.6
19:30 1017 30.03 847 25.01 1.6 34.9 64 -4.4 24.1
19:35 1017 30.03 847 25.01 1.6 34.9 65 -4.3 24.3
19:40 1017 30.03 847 25.01 1.5 34.7 65 -4.3 24.3
19:45 1018 30.06 847 25.01 1.5 34.6 65 -4.3 24.2
19:50 1018 30.06 847 25.01 1.5 34.7 66 -4.1 24.5
19:55 1018 30.06 847 25.01 1.4 34.6 65 -4.3 24.2
20:00 1018 30.06 847 25.01 1.5 34.6 65 -4.4 24
20:05 1018 30.06 847 25.01 1.5 34.7 64 -4.6 23.8
20:10 1018 30.06 847 25.01 1.5 34.6 65 -4.3 24.2
20:15 1018 30.06 847 25.01 1.4 34.6 66 -4.3 24.2
20:20 1018 30.06 847 25.01 1.4 34.6 65 -4.4 24.1
20:25 1018 30.06 847 25.01 1.4 34.6 65 -4.4 24.1
20:30 1018 30.06 847 25.01 1.4 34.5 66 -4.3 24.2
20:35 1018 30.06 847 25.01 1.4 34.5 65 -4.4 24.1
20:40 1018 30.06 847 25.01 1.4 34.5 65 -4.5 23.9
20:45 1018 30.06 847 25.01 1.4 34.5 64 -4.7 23.5
20:50 1018 30.06 847 25.01 1.4 34.4 63 -4.8 23.3
20:55 1018 30.06 847 25.01 1.4 34.4 64 -4.7 23.5
21:00 1018 30.06 847 25.01 1.3 34.4 65 -4.6 23.8
21:05 1018 30.06 847 25.01 1.3 34.3 64 -4.7 23.5
21:10 1018 30.06 847 25.01 1.3 34.3 65 -4.7 23.6
21:15 1018 30.06 847 25.01 1.2 34.2 65 -4.6 23.6
21:20 1018 30.06 847 25.01 1.2 34.2 66 -4.5 23.9
21:25 1018 30.06 847 25.01 1.2 34.1 66 -4.6 23.7
21:30 1018 30.06 847 25.01 1.2 34.1 65 -4.7 23.6
21:35 1018 30.06 847 25.01 1.2 34.1 64 -4.8 23.3
21:40 1018 30.06 847 25.01 1.2 34.1 64 -4.8 23.4
21:45 1018 30.06 847 25.01 1.2 34.1 65 -4.7 23.5
21:50 1018 30.06 847 25.01 1.2 34.1 64 -4.8 23.4
21:55 1018 30.06 847 25.01 1.2 34.1 65 -4.8 23.4
22:00 1017 30.03 847 25.01 1.2 34.1 64 -4.9 23.2
22:05 1017 30.03 847 25.01 1.2 34.1 63 -5 23
22:10 1017 30.03 847 25.01 1.2 34.2 64 -4.8 23.4
22:15 1017 30.03 847 25.01 1.2 34.1 64 -4.8 23.3
22:20 1017 30.03 847 25.01 1.2 34.1 65 -4.8 23.4
22:25 1017 30.03 847 25.01 1.2 34.1 65 -4.7 23.5
22:30 1017 30.03 847 25.01 1.1 34.1 66 -4.6 23.7
22:35 1017 30.03 847 25.01 1.1 34 65 -4.7 23.5
22:40 1017 30.03 847 25.01 1.1 34 65 -4.7 23.5
22:45 1017 30.03 846 24.98 1.1 34 66 -4.6 23.7
22:50 1017 30.03 846 24.98 1.1 33.9 65 -4.7 23.5
22:55 1017 30.03 846 24.98 1.1 34 66 -4.6 23.7
23:00 1017 30.03 846 24.98 1.1 33.9 66 -4.5 23.9
23:05 1017 30.03 846 24.98 1 33.8 66 -4.6 23.7
23:10 1017 30.03 846 24.98 1 33.7 67 -4.5 23.9
23:15 1017 30.03 846 24.98 0.9 33.7 68 -4.4 24.1
23:20 1017 30.03 846 24.98 0.9 33.7 68 -4.3 24.3
23:25 1017 30.03 846 24.98 0.9 33.6 68 -4.3 24.2
23:30 1017 30.03 846 24.98 0.9 33.5 69 -4.2 24.4
23:35 1017 30.03 846 24.98 0.8 33.5 69 -4.2 24.5
23:40 1017 30.03 846 24.98 0.8 33.5 69 -4.2 24.5
23:45 1017 30.03 846 24.98 0.8 33.5 70 -4.1 24.6
23:50 1017 30.03 846 24.98 0.8 33.4 71 -4 24.9
23:55 1017 30.03 846 24.98 0.8 33.4 70 -4 24.8
24:00 1017 30.03 846 24.98 0.7 33.3 71 -4 24.8